sensor_id;sensor_type;location;lat;lon;timestamp;pressure;altitude;pressure_sealevel;temperature;humidity
9139;BME280;4604;48.616;9.548;2024-03-23T00:53:43;96196.19;;;11.11;73.20
9139;BME280;4604;48.616;9.548;2024-03-23T00:56:09;96190.91;;;11.03;73.46
9139;BME280;4604;48.616;9.548;2024-03-23T00:58:35;96182.16;;;11.11;73.51
9139;BME280;4604;48.616;9.548;2024-03-23T01:01:02;96182.03;;;11.21;73.00
9139;BME280;4604;48.616;9.548;2024-03-23T01:03:28;96166.66;;;11.16;72.67
9139;BME280;4604;48.616;9.548;2024-03-23T01:05:59;96174.81;;;11.39;72.66
9139;BME280;4604;48.616;9.548;2024-03-23T01:08:26;96165.88;;;11.48;71.40
9139;BME280;4604;48.616;9.548;2024-03-23T01:10:56;96171.53;;;11.62;70.77
9139;BME280;4604;48.616;9.548;2024-03-23T01:13:21;96160.63;;;11.56;70.98
9139;BME280;4604;48.616;9.548;2024-03-23T01:15:49;96171.84;;;11.67;70.92
9139;BME280;4604;48.616;9.548;2024-03-23T01:18:14;96166.56;;;11.75;70.32
9139;BME280;4604;48.616;9.548;2024-03-23T01:20:41;96172.84;;;11.74;71.07
9139;BME280;4604;48.616;9.548;2024-03-23T01:23:07;96164.78;;;11.75;71.34
9139;BME280;4604;48.616;9.548;2024-03-23T01:25:34;96167.72;;;11.72;71.64
9139;BME280;4604;48.616;9.548;2024-03-23T01:28:00;96171.53;;;11.86;71.81
9139;BME280;4604;48.616;9.548;2024-03-23T01:30:27;96154.03;;;12.02;72.12
9139;BME280;4604;48.616;9.548;2024-03-23T01:32:52;96161.81;;;12.03;72.00
9139;BME280;4604;48.616;9.548;2024-03-23T01:35:19;96166.09;;;12.12;70.75
9139;BME280;4604;48.616;9.548;2024-03-23T01:37:44;96141.47;;;12.04;71.38
9139;BME280;4604;48.616;9.548;2024-03-23T01:40:12;96138.28;;;12.16;70.34
9139;BME280;4604;48.616;9.548;2024-03-23T01:42:40;96138.63;;;12.13;70.42
9139;BME280;4604;48.616;9.548;2024-03-23T01:45:08;96118.97;;;12.16;70.54
9139;BME280;4604;48.616;9.548;2024-03-23T01:47:35;96128.19;;;12.28;69.82
9139;BME280;4604;48.616;9.548;2024-03-23T01:50:01;96129.69;;;12.23;69.85
9139;BME280;4604;48.616;9.548;2024-03-23T01:52:27;96130.00;;;12.28;69.02
9139;BME280;4604;48.616;9.548;2024-03-23T01:54:54;96132.31;;;12.31;69.32
9139;BME280;4604;48.616;9.548;2024-03-23T01:57:20;96121.84;;;12.46;68.65
9139;BME280;4604;48.616;9.548;2024-03-23T01:59:48;96110.28;;;12.47;68.80
9139;BME280;4604;48.616;9.548;2024-03-23T02:02:14;96100.81;;;12.52;68.38
9139;BME280;4604;48.616;9.548;2024-03-23T02:04:43;96107.44;;;12.56;68.29
9139;BME280;4604;48.616;9.548;2024-03-23T02:07:08;96101.78;;;12.59;68.37
9139;BME280;4604;48.616;9.548;2024-03-23T02:09:35;96103.41;;;12.69;67.88
9139;BME280;4604;48.616;9.548;2024-03-23T02:12:02;96099.94;;;12.68;68.24
9139;BME280;4604;48.616;9.548;2024-03-23T02:14:29;96101.53;;;12.77;68.29
9139;BME280;4604;48.616;9.548;2024-03-23T02:16:56;96090.81;;;12.71;68.56
9139;BME280;4604;48.616;9.548;2024-03-23T02:19:22;96086.72;;;12.68;68.89
9139;BME280;4604;48.616;9.548;2024-03-23T02:21:48;96080.25;;;12.71;68.75
9139;BME280;4604;48.616;9.548;2024-03-23T02:24:16;96080.34;;;12.77;68.67
9139;BME280;4604;48.616;9.548;2024-03-23T02:26:42;96074.44;;;12.75;68.50
9139;BME280;4604;48.616;9.548;2024-03-23T02:29:08;96069.75;;;12.77;68.07
9139;BME280;4604;48.616;9.548;2024-03-23T02:31:34;96057.53;;;12.76;68.15
9139;BME280;4604;48.616;9.548;2024-03-23T02:34:01;96065.25;;;12.86;68.08
9139;BME280;4604;48.616;9.548;2024-03-23T02:36:27;96057.75;;;12.90;67.81
9139;BME280;4604;48.616;9.548;2024-03-23T02:38:53;96069.66;;;12.94;67.89
9139;BME280;4604;48.616;9.548;2024-03-23T02:41:20;96054.38;;;12.81;68.07
9139;BME280;4604;48.616;9.548;2024-03-23T02:43:49;96053.31;;;12.90;67.14
9139;BME280;4604;48.616;9.548;2024-03-23T02:46:15;96049.88;;;12.81;67.69
9139;BME280;4604;48.616;9.548;2024-03-23T02:48:41;96045.59;;;12.80;67.93
9139;BME280;4604;48.616;9.548;2024-03-23T02:51:07;96048.78;;;12.76;68.49
9139;BME280;4604;48.616;9.548;2024-03-23T02:53:34;96055.69;;;12.77;68.04
9139;BME280;4604;48.616;9.548;2024-03-23T02:55:59;96052.75;;;12.72;68.55
9139;BME280;4604;48.616;9.548;2024-03-23T02:58:27;96047.81;;;12.69;68.69
9139;BME280;4604;48.616;9.548;2024-03-23T03:00:53;96050.16;;;12.63;69.12
9139;BME280;4604;48.616;9.548;2024-03-23T03:03:19;96047.00;;;12.68;69.48
9139;BME280;4604;48.616;9.548;2024-03-23T03:05:45;96042.16;;;12.72;69.46
9139;BME280;4604;48.616;9.548;2024-03-23T03:08:12;96047.00;;;12.68;69.91
9139;BME280;4604;48.616;9.548;2024-03-23T03:10:37;96039.75;;;12.62;70.59
9139;BME280;4604;48.616;9.548;2024-03-23T03:13:05;96041.03;;;12.66;70.40
9139;BME280;4604;48.616;9.548;2024-03-23T03:15:32;96038.88;;;12.70;70.48
9139;BME280;4604;48.616;9.548;2024-03-23T03:17:59;96027.81;;;12.66;70.46
9139;BME280;4604;48.616;9.548;2024-03-23T03:20:25;96028.13;;;12.63;71.04
9139;BME280;4604;48.616;9.548;2024-03-23T03:22:51;96028.03;;;12.56;71.04
9139;BME280;4604;48.616;9.548;2024-03-23T03:25:19;96023.06;;;12.53;71.66
9139;BME280;4604;48.616;9.548;2024-03-23T03:27:45;96029.31;;;12.60;71.61
9139;BME280;4604;48.616;9.548;2024-03-23T03:30:11;96022.91;;;12.55;71.59
9139;BME280;4604;48.616;9.548;2024-03-23T03:32:39;96023.72;;;12.55;72.23
9139;BME280;4604;48.616;9.548;2024-03-23T03:35:05;96014.75;;;12.64;71.66
9139;BME280;4604;48.616;9.548;2024-03-23T03:37:32;96010.31;;;12.57;71.68
9139;BME280;4604;48.616;9.548;2024-03-23T03:40:00;96021.44;;;12.52;72.09
9139;BME280;4604;48.616;9.548;2024-03-23T03:42:27;96015.66;;;12.49;72.52
9139;BME280;4604;48.616;9.548;2024-03-23T03:44:52;96013.75;;;12.66;72.01
9139;BME280;4604;48.616;9.548;2024-03-23T03:47:19;96017.97;;;12.52;72.69
9139;BME280;4604;48.616;9.548;2024-03-23T03:49:47;96012.97;;;12.57;72.89
9139;BME280;4604;48.616;9.548;2024-03-23T03:52:13;96017.44;;;12.56;73.80
9139;BME280;4604;48.616;9.548;2024-03-23T03:54:39;96016.50;;;12.49;74.41
9139;BME280;4604;48.616;9.548;2024-03-23T03:57:06;96030.88;;;12.47;75.45
9139;BME280;4604;48.616;9.548;2024-03-23T03:59:31;96016.69;;;12.71;75.58
9139;BME280;4604;48.616;9.548;2024-03-23T04:01:58;96018.50;;;12.70;75.82
9139;BME280;4604;48.616;9.548;2024-03-23T04:04:23;96000.16;;;12.92;75.69
9139;BME280;4604;48.616;9.548;2024-03-23T04:06:58;96006.50;;;12.82;75.97
9139;BME280;4604;48.616;9.548;2024-03-23T04:09:23;95964.63;;;12.86;75.17
9139;BME280;4604;48.616;9.548;2024-03-23T04:11:50;95972.16;;;12.97;74.69
9139;BME280;4604;48.616;9.548;2024-03-23T04:14:17;95962.28;;;12.91;75.07
9139;BME280;4604;48.616;9.548;2024-03-23T04:16:42;95967.78;;;13.04;74.50
9139;BME280;4604;48.616;9.548;2024-03-23T04:19:09;95951.88;;;13.04;74.14
9139;BME280;4604;48.616;9.548;2024-03-23T04:21:35;95948.44;;;13.19;74.22
9139;BME280;4604;48.616;9.548;2024-03-23T04:24:04;95922.75;;;13.04;74.14
9139;BME280;4604;48.616;9.548;2024-03-23T04:26:30;95935.47;;;13.09;74.46
9139;BME280;4604;48.616;9.548;2024-03-23T04:28:56;95933.09;;;13.14;74.32
9139;BME280;4604;48.616;9.548;2024-03-23T04:31:22;95911.72;;;13.16;73.75
9139;BME280;4604;48.616;9.548;2024-03-23T04:33:49;95912.00;;;13.21;73.48
9139;BME280;4604;48.616;9.548;2024-03-23T04:36:14;95903.13;;;13.14;73.31
9139;BME280;4604;48.616;9.548;2024-03-23T04:38:41;95900.00;;;13.33;72.12
9139;BME280;4604;48.616;9.548;2024-03-23T04:41:09;95884.69;;;13.20;72.78
9139;BME280;4604;48.616;9.548;2024-03-23T04:43:35;95882.41;;;13.17;73.14
9139;BME280;4604;48.616;9.548;2024-03-23T04:46:02;95872.81;;;13.16;71.70
9139;BME280;4604;48.616;9.548;2024-03-23T04:48:29;95874.53;;;13.09;72.57
9139;BME280;4604;48.616;9.548;2024-03-23T04:50:55;95852.78;;;12.99;71.91
9139;BME280;4604;48.616;9.548;2024-03-23T04:53:23;95874.09;;;13.20;69.28
9139;BME280;4604;48.616;9.548;2024-03-23T04:55:53;95867.63;;;13.23;68.55
9139;BME280;4604;48.616;9.548;2024-03-23T04:58:21;95868.97;;;13.04;68.73
9139;BME280;4604;48.616;9.548;2024-03-23T05:00:47;95873.38;;;13.26;67.54
9139;BME280;4604;48.616;9.548;2024-03-23T05:03:13;95886.91;;;13.17;67.36
9139;BME280;4604;48.616;9.548;2024-03-23T05:05:40;95868.19;;;13.48;66.67
9139;BME280;4604;48.616;9.548;2024-03-23T05:08:06;95852.28;;;13.48;66.23
9139;BME280;4604;48.616;9.548;2024-03-23T05:10:33;95857.16;;;13.44;65.52
9139;BME280;4604;48.616;9.548;2024-03-23T05:12:59;95839.38;;;13.60;64.53
9139;BME280;4604;48.616;9.548;2024-03-23T05:15:27;95848.16;;;13.60;64.75
9139;BME280;4604;48.616;9.548;2024-03-23T05:17:52;95846.69;;;13.58;65.45
9139;BME280;4604;48.616;9.548;2024-03-23T05:20:19;95851.94;;;13.51;66.28
9139;BME280;4604;48.616;9.548;2024-03-23T05:22:45;95850.00;;;13.45;66.60
9139;BME280;4604;48.616;9.548;2024-03-23T05:25:11;95869.38;;;13.45;66.27
9139;BME280;4604;48.616;9.548;2024-03-23T05:27:37;95925.59;;;13.56;65.97
9139;BME280;4604;48.616;9.548;2024-03-23T05:30:05;95939.09;;;12.93;73.02
9139;BME280;4604;48.616;9.548;2024-03-23T05:32:32;95932.06;;;12.31;80.00
9139;BME280;4604;48.616;9.548;2024-03-23T05:34:59;95949.13;;;11.97;84.53
9139;BME280;4604;48.616;9.548;2024-03-23T05:37:24;95936.66;;;11.59;91.40
9139;BME280;4604;48.616;9.548;2024-03-23T05:39:51;95951.75;;;11.42;96.18
9139;BME280;4604;48.616;9.548;2024-03-23T05:42:17;95985.78;;;11.04;100.00
9139;BME280;4604;48.616;9.548;2024-03-23T05:44:44;95972.41;;;10.73;100.00
9139;BME280;4604;48.616;9.548;2024-03-23T05:47:10;95959.34;;;10.63;100.00
9139;BME280;4604;48.616;9.548;2024-03-23T05:49:39;95956.69;;;10.38;100.00
9139;BME280;4604;48.616;9.548;2024-03-23T05:52:07;95962.53;;;10.24;100.00
9139;BME280;4604;48.616;9.548;2024-03-23T05:54:33;95989.09;;;10.22;100.00
9139;BME280;4604;48.616;9.548;2024-03-23T05:56:59;96019.44;;;9.92;100.00
9139;BME280;4604;48.616;9.548;2024-03-23T05:59:26;96044.63;;;9.86;100.00
9139;BME280;4604;48.616;9.548;2024-03-23T06:01:52;96053.66;;;9.84;100.00
9139;BME280;4604;48.616;9.548;2024-03-23T06:04:19;96062.03;;;9.79;100.00
9139;BME280;4604;48.616;9.548;2024-03-23T06:06:46;96062.97;;;9.70;100.00
9139;BME280;4604;48.616;9.548;2024-03-23T06:09:13;96069.72;;;9.73;100.00
9139;BME280;4604;48.616;9.548;2024-03-23T06:11:38;96082.91;;;9.73;100.00
9139;BME280;4604;48.616;9.548;2024-03-23T06:14:05;96079.03;;;9.59;100.00
9139;BME280;4604;48.616;9.548;2024-03-23T06:16:31;96083.63;;;9.57;100.00
9139;BME280;4604;48.616;9.548;2024-03-23T06:18:57;96088.50;;;9.70;100.00
9139;BME280;4604;48.616;9.548;2024-03-23T06:21:24;96079.81;;;9.51;100.00
9139;BME280;4604;48.616;9.548;2024-03-23T06:23:52;96080.78;;;9.50;100.00
9139;BME280;4604;48.616;9.548;2024-03-23T06:26:18;96091.75;;;9.46;100.00
9139;BME280;4604;48.616;9.548;2024-03-23T06:28:45;96069.28;;;9.33;100.00
9139;BME280;4604;48.616;9.548;2024-03-23T06:31:11;96089.91;;;9.38;100.00
9139;BME280;4604;48.616;9.548;2024-03-23T06:33:38;96102.66;;;9.51;100.00
9139;BME280;4604;48.616;9.548;2024-03-23T06:36:04;96116.16;;;9.48;100.00
9139;BME280;4604;48.616;9.548;2024-03-23T06:38:31;96120.75;;;9.28;100.00
9139;BME280;4604;48.616;9.548;2024-03-23T06:40:58;96125.19;;;9.27;100.00
9139;BME280;4604;48.616;9.548;2024-03-23T06:43:25;96115.50;;;9.10;100.00
9139;BME280;4604;48.616;9.548;2024-03-23T06:45:54;96135.72;;;9.09;100.00
9139;BME280;4604;48.616;9.548;2024-03-23T06:48:21;96123.97;;;9.04;100.00
9139;BME280;4604;48.616;9.548;2024-03-23T06:50:48;96143.91;;;9.06;100.00
9139;BME280;4604;48.616;9.548;2024-03-23T06:53:14;96141.34;;;9.14;100.00
9139;BME280;4604;48.616;9.548;2024-03-23T06:55:41;96148.94;;;8.99;100.00
9139;BME280;4604;48.616;9.548;2024-03-23T06:58:08;96137.19;;;8.94;100.00
9139;BME280;4604;48.616;9.548;2024-03-23T07:00:35;96151.94;;;8.87;100.00
9139;BME280;4604;48.616;9.548;2024-03-23T07:03:01;96168.16;;;8.82;100.00
9139;BME280;4604;48.616;9.548;2024-03-23T07:05:29;96172.19;;;9.04;100.00
9139;BME280;4604;48.616;9.548;2024-03-23T07:07:54;96170.97;;;8.98;100.00
9139;BME280;4604;48.616;9.548;2024-03-23T07:10:21;96203.00;;;8.94;100.00
9139;BME280;4604;48.616;9.548;2024-03-23T07:12:47;96175.72;;;8.95;100.00
9139;BME280;4604;48.616;9.548;2024-03-23T07:15:15;96162.00;;;8.91;100.00
9139;BME280;4604;48.616;9.548;2024-03-23T07:17:41;96163.59;;;9.02;100.00
9139;BME280;4604;48.616;9.548;2024-03-23T07:20:08;96160.22;;;8.92;100.00
9139;BME280;4604;48.616;9.548;2024-03-23T07:22:35;96160.56;;;8.79;100.00
9139;BME280;4604;48.616;9.548;2024-03-23T07:25:02;96173.56;;;8.53;100.00
9139;BME280;4604;48.616;9.548;2024-03-23T07:27:28;96179.31;;;8.66;100.00
9139;BME280;4604;48.616;9.548;2024-03-23T07:29:55;96195.19;;;8.74;100.00
9139;BME280;4604;48.616;9.548;2024-03-23T07:32:22;96212.75;;;8.84;100.00
9139;BME280;4604;48.616;9.548;2024-03-23T07:34:48;96188.44;;;8.72;100.00
9139;BME280;4604;48.616;9.548;2024-03-23T07:37:14;96215.38;;;8.84;100.00
9139;BME280;4604;48.616;9.548;2024-03-23T07:39:41;96218.81;;;8.84;100.00
9139;BME280;4604;48.616;9.548;2024-03-23T07:42:06;96241.00;;;8.82;100.00
9139;BME280;4604;48.616;9.548;2024-03-23T07:44:33;96248.84;;;8.64;100.00
9139;BME280;4604;48.616;9.548;2024-03-23T07:46:59;96250.88;;;8.70;100.00
9139;BME280;4604;48.616;9.548;2024-03-23T07:49:27;96252.69;;;8.69;100.00
9139;BME280;4604;48.616;9.548;2024-03-23T07:51:53;96242.31;;;8.58;100.00
9139;BME280;4604;48.616;9.548;2024-03-23T07:54:20;96238.31;;;8.64;100.00
9139;BME280;4604;48.616;9.548;2024-03-23T07:56:45;96245.34;;;8.63;100.00
9139;BME280;4604;48.616;9.548;2024-03-23T07:59:12;96246.88;;;8.66;100.00
9139;BME280;4604;48.616;9.548;2024-03-23T08:01:37;96259.63;;;8.61;100.00
9139;BME280;4604;48.616;9.548;2024-03-23T08:04:04;96277.19;;;8.70;100.00
9139;BME280;4604;48.616;9.548;2024-03-23T08:06:31;96272.53;;;8.54;100.00
9139;BME280;4604;48.616;9.548;2024-03-23T08:08:58;96271.38;;;8.66;100.00
9139;BME280;4604;48.616;9.548;2024-03-23T08:11:27;96280.50;;;8.72;100.00
9139;BME280;4604;48.616;9.548;2024-03-23T08:13:55;96280.75;;;8.78;100.00
9139;BME280;4604;48.616;9.548;2024-03-23T08:16:21;96292.78;;;8.81;100.00
9139;BME280;4604;48.616;9.548;2024-03-23T08:18:48;96302.16;;;8.93;100.00
9139;BME280;4604;48.616;9.548;2024-03-23T08:21:16;96281.44;;;8.81;100.00
9139;BME280;4604;48.616;9.548;2024-03-23T08:23:44;96301.22;;;8.85;100.00
9139;BME280;4604;48.616;9.548;2024-03-23T08:26:11;96297.78;;;8.74;100.00
9139;BME280;4604;48.616;9.548;2024-03-23T08:28:38;96310.19;;;8.92;100.00
9139;BME280;4604;48.616;9.548;2024-03-23T08:31:07;96326.66;;;8.94;100.00
9139;BME280;4604;48.616;9.548;2024-03-23T08:33:34;96389.88;;;8.74;97.07
9139;BME280;4604;48.616;9.548;2024-03-23T08:36:02;96358.63;;;8.62;97.89
9139;BME280;4604;48.616;9.548;2024-03-23T08:38:29;96362.47;;;8.57;97.23
9139;BME280;4604;48.616;9.548;2024-03-23T08:41:01;96375.34;;;8.61;95.87
9139;BME280;4604;48.616;9.548;2024-03-23T08:43:29;96353.34;;;8.71;96.73
9139;BME280;4604;48.616;9.548;2024-03-23T08:46:03;96365.38;;;8.74;95.14
9139;BME280;4604;48.616;9.548;2024-03-23T08:48:30;96370.03;;;8.90;95.51
9139;BME280;4604;48.616;9.548;2024-03-23T08:50:59;96415.34;;;8.84;96.36
9139;BME280;4604;48.616;9.548;2024-03-23T08:53:27;96393.88;;;8.88;98.25
9139;BME280;4604;48.616;9.548;2024-03-23T08:55:53;96422.13;;;8.76;93.73
9139;BME280;4604;48.616;9.548;2024-03-23T08:58:22;96425.88;;;8.74;93.07
9139;BME280;4604;48.616;9.548;2024-03-23T09:00:49;96411.75;;;8.65;90.21
9139;BME280;4604;48.616;9.548;2024-03-23T09:03:16;96445.53;;;8.70;89.22
9139;BME280;4604;48.616;9.548;2024-03-23T09:05:41;96429.75;;;8.60;87.29
9139;BME280;4604;48.616;9.548;2024-03-23T09:08:08;96438.63;;;8.59;88.46
9139;BME280;4604;48.616;9.548;2024-03-23T09:10:37;96419.94;;;8.43;82.24
9139;BME280;4604;48.616;9.548;2024-03-23T09:13:04;96456.75;;;8.43;80.50
9139;BME280;4604;48.616;9.548;2024-03-23T09:15:32;96458.94;;;8.38;80.47
9139;BME280;4604;48.616;9.548;2024-03-23T09:17:59;96441.47;;;8.17;84.36
9139;BME280;4604;48.616;9.548;2024-03-23T09:20:24;96476.59;;;8.16;85.64
9139;BME280;4604;48.616;9.548;2024-03-23T09:22:51;96470.09;;;8.10;84.52
9139;BME280;4604;48.616;9.548;2024-03-23T09:25:17;96455.75;;;8.24;84.02
9139;BME280;4604;48.616;9.548;2024-03-23T09:27:45;96466.13;;;8.35;83.60
9139;BME280;4604;48.616;9.548;2024-03-23T09:30:12;96468.38;;;8.40;80.40
9139;BME280;4604;48.616;9.548;2024-03-23T09:32:42;96479.13;;;8.37;77.08
9139;BME280;4604;48.616;9.548;2024-03-23T09:35:07;96469.00;;;8.23;72.99
9139;BME280;4604;48.616;9.548;2024-03-23T09:37:34;96470.88;;;8.42;73.28
9139;BME280;4604;48.616;9.548;2024-03-23T09:40:00;96474.28;;;8.23;67.57
9139;BME280;4604;48.616;9.548;2024-03-23T09:42:26;96480.63;;;8.10;66.04
9139;BME280;4604;48.616;9.548;2024-03-23T09:44:52;96512.72;;;8.24;68.11
9139;BME280;4604;48.616;9.548;2024-03-23T09:47:19;96496.13;;;8.23;70.66
9139;BME280;4604;48.616;9.548;2024-03-23T09:49:46;96489.91;;;8.24;71.87
9139;BME280;4604;48.616;9.548;2024-03-23T09:52:12;96480.22;;;8.15;74.61
9139;BME280;4604;48.616;9.548;2024-03-23T09:54:38;96464.56;;;8.13;76.51
9139;BME280;4604;48.616;9.548;2024-03-23T09:57:05;96452.81;;;8.08;75.24
9139;BME280;4604;48.616;9.548;2024-03-23T09:59:32;96470.91;;;8.11;74.13
9139;BME280;4604;48.616;9.548;2024-03-23T10:01:59;96469.41;;;8.08;74.66
9139;BME280;4604;48.616;9.548;2024-03-23T10:04:38;96477.56;;;8.05;75.16
9139;BME280;4604;48.616;9.548;2024-03-23T10:07:13;96473.19;;;8.35;75.39
9139;BME280;4604;48.616;9.548;2024-03-23T10:09:39;96470.31;;;8.57;73.80
9139;BME280;4604;48.616;9.548;2024-03-23T10:12:10;96462.13;;;8.70;65.25
9139;BME280;4604;48.616;9.548;2024-03-23T10:14:36;96468.09;;;8.92;64.67
9139;BME280;4604;48.616;9.548;2024-03-23T10:17:12;96458.25;;;8.94;66.38
9139;BME280;4604;48.616;9.548;2024-03-23T10:19:39;96484.97;;;8.99;64.99
9139;BME280;4604;48.616;9.548;2024-03-23T10:22:06;96458.53;;;9.00;65.53
9139;BME280;4604;48.616;9.548;2024-03-23T10:24:33;96475.44;;;8.78;62.69
9139;BME280;4604;48.616;9.548;2024-03-23T10:27:00;96457.75;;;8.51;64.24
9139;BME280;4604;48.616;9.548;2024-03-23T10:29:25;96456.34;;;8.57;65.13
9139;BME280;4604;48.616;9.548;2024-03-23T10:31:52;96475.88;;;8.54;63.83
9139;BME280;4604;48.616;9.548;2024-03-23T10:34:25;96481.94;;;8.65;65.45
9139;BME280;4604;48.616;9.548;2024-03-23T10:36:53;96461.88;;;8.73;65.17
9139;BME280;4604;48.616;9.548;2024-03-23T10:39:19;96477.50;;;8.85;64.90
9139;BME280;4604;48.616;9.548;2024-03-23T10:41:49;96450.09;;;8.87;65.79
9139;BME280;4604;48.616;9.548;2024-03-23T10:44:17;96460.69;;;9.25;65.40
9139;BME280;4604;48.616;9.548;2024-03-23T10:46:45;96446.84;;;9.23;64.72
9139;BME280;4604;48.616;9.548;2024-03-23T10:49:11;96447.19;;;9.47;64.53
9139;BME280;4604;48.616;9.548;2024-03-23T10:51:37;96458.59;;;9.28;63.23
9139;BME280;4604;48.616;9.548;2024-03-23T10:54:04;96443.13;;;9.15;60.79
9139;BME280;4604;48.616;9.548;2024-03-23T10:56:32;96458.03;;;9.34;58.22
9139;BME280;4604;48.616;9.548;2024-03-23T10:59:02;96450.66;;;9.48;55.02
9139;BME280;4604;48.616;9.548;2024-03-23T11:01:31;96446.75;;;9.52;55.43
9139;BME280;4604;48.616;9.548;2024-03-23T11:03:56;96451.28;;;9.22;54.27
9139;BME280;4604;48.616;9.548;2024-03-23T11:06:36;96443.25;;;9.14;55.71
9139;BME280;4604;48.616;9.548;2024-03-23T11:09:02;96439.78;;;9.13;56.49
9139;BME280;4604;48.616;9.548;2024-03-23T11:11:28;96445.72;;;9.25;57.09
9139;BME280;4604;48.616;9.548;2024-03-23T11:13:57;96443.19;;;9.33;56.69
9139;BME280;4604;48.616;9.548;2024-03-23T11:16:26;96442.75;;;9.00;59.00
9139;BME280;4604;48.616;9.548;2024-03-23T11:18:53;96455.47;;;9.05;58.69
9139;BME280;4604;48.616;9.548;2024-03-23T11:21:51;96489.97;;;8.63;59.03
9139;BME280;4604;48.616;9.548;2024-03-23T11:24:17;96511.72;;;8.05;68.08
9139;BME280;4604;48.616;9.548;2024-03-23T11:26:45;96563.44;;;6.90;90.47
9139;BME280;4604;48.616;9.548;2024-03-23T11:29:11;96585.28;;;5.91;100.00
9139;BME280;4604;48.616;9.548;2024-03-23T11:31:39;96584.72;;;5.41;100.00
9139;BME280;4604;48.616;9.548;2024-03-23T11:34:10;96589.47;;;5.35;100.00
9139;BME280;4604;48.616;9.548;2024-03-23T11:36:37;96600.72;;;5.13;100.00
9139;BME280;4604;48.616;9.548;2024-03-23T11:39:11;96567.31;;;5.17;100.00
9139;BME280;4604;48.616;9.548;2024-03-23T11:41:48;96541.44;;;5.36;100.00
9139;BME280;4604;48.616;9.548;2024-03-23T11:44:17;96558.22;;;5.68;100.00
9139;BME280;4604;48.616;9.548;2024-03-23T11:46:46;96571.91;;;5.83;100.00
9139;BME280;4604;48.616;9.548;2024-03-23T11:49:22;96573.16;;;6.01;100.00
9139;BME280;4604;48.616;9.548;2024-03-23T11:51:49;96571.22;;;6.14;100.00
9139;BME280;4604;48.616;9.548;2024-03-23T11:54:15;96577.13;;;6.50;100.00
9139;BME280;4604;48.616;9.548;2024-03-23T11:56:54;96568.09;;;6.43;100.00
9139;BME280;4604;48.616;9.548;2024-03-23T11:59:30;96572.72;;;6.62;100.00
9139;BME280;4604;48.616;9.548;2024-03-23T12:01:58;96570.09;;;6.62;100.00
9139;BME280;4604;48.616;9.548;2024-03-23T12:04:27;96567.28;;;6.31;100.00
9139;BME280;4604;48.616;9.548;2024-03-23T12:07:11;96565.41;;;6.65;100.00
9139;BME280;4604;48.616;9.548;2024-03-23T12:09:36;96561.16;;;6.53;97.36
9139;BME280;4604;48.616;9.548;2024-03-23T12:12:08;96560.97;;;6.77;100.00
9139;BME280;4604;48.616;9.548;2024-03-23T12:14:34;96567.75;;;7.12;98.62
9139;BME280;4604;48.616;9.548;2024-03-23T12:17:09;96557.59;;;7.40;99.29
9139;BME280;4604;48.616;9.548;2024-03-23T12:19:35;96556.38;;;7.75;96.75
9139;BME280;4604;48.616;9.548;2024-03-23T12:22:03;96555.56;;;7.53;90.85
9139;BME280;4604;48.616;9.548;2024-03-23T12:24:30;96556.59;;;7.62;92.66
9139;BME280;4604;48.616;9.548;2024-03-23T12:27:00;96541.84;;;7.70;94.04
9139;BME280;4604;48.616;9.548;2024-03-23T12:29:27;96546.75;;;7.85;93.51
9139;BME280;4604;48.616;9.548;2024-03-23T12:31:53;96535.06;;;7.68;91.02
9139;BME280;4604;48.616;9.548;2024-03-23T12:34:20;96535.91;;;7.68;91.99
9139;BME280;4604;48.616;9.548;2024-03-23T12:36:47;96531.81;;;7.76;91.40
9139;BME280;4604;48.616;9.548;2024-03-23T12:39:12;96528.09;;;7.78;89.58
9139;BME280;4604;48.616;9.548;2024-03-23T12:41:39;96519.19;;;8.00;88.42
9139;BME280;4604;48.616;9.548;2024-03-23T12:44:04;96522.81;;;8.19;86.38
9139;BME280;4604;48.616;9.548;2024-03-23T12:46:33;96519.00;;;7.92;77.10
9139;BME280;4604;48.616;9.548;2024-03-23T12:48:59;96524.09;;;7.84;77.92
9139;BME280;4604;48.616;9.548;2024-03-23T12:51:27;96525.56;;;8.07;78.96
9139;BME280;4604;48.616;9.548;2024-03-23T12:53:52;96532.97;;;7.62;73.38
9139;BME280;4604;48.616;9.548;2024-03-23T12:56:19;96524.75;;;7.76;75.65
9139;BME280;4604;48.616;9.548;2024-03-23T12:58:45;96530.13;;;7.75;75.82
9139;BME280;4604;48.616;9.548;2024-03-23T13:01:14;96516.31;;;7.82;74.60
9139;BME280;4604;48.616;9.548;2024-03-23T13:03:39;96518.66;;;7.45;72.48
9139;BME280;4604;48.616;9.548;2024-03-23T13:06:06;96516.00;;;7.66;75.16
9139;BME280;4604;48.616;9.548;2024-03-23T13:08:34;96538.72;;;7.77;73.11
9139;BME280;4604;48.616;9.548;2024-03-23T13:11:01;96511.38;;;7.89;72.32
9139;BME280;4604;48.616;9.548;2024-03-23T13:13:26;96500.00;;;8.29;71.21
9139;BME280;4604;48.616;9.548;2024-03-23T13:15:53;96501.25;;;8.15;69.14
9139;BME280;4604;48.616;9.548;2024-03-23T13:18:18;96490.47;;;8.28;68.01
9139;BME280;4604;48.616;9.548;2024-03-23T13:20:45;96491.06;;;8.41;71.27
9139;BME280;4604;48.616;9.548;2024-03-23T13:23:11;96482.34;;;8.50;70.75
9139;BME280;4604;48.616;9.548;2024-03-23T13:25:39;96473.59;;;8.30;72.57
9139;BME280;4604;48.616;9.548;2024-03-23T13:28:05;96483.06;;;8.52;71.51
9139;BME280;4604;48.616;9.548;2024-03-23T13:30:31;96490.44;;;8.18;69.21
9139;BME280;4604;48.616;9.548;2024-03-23T13:32:57;96450.63;;;8.23;71.20
9139;BME280;4604;48.616;9.548;2024-03-23T13:35:24;96466.72;;;8.59;70.81
9139;BME280;4604;48.616;9.548;2024-03-23T13:37:50;96463.13;;;8.60;70.36
9139;BME280;4604;48.616;9.548;2024-03-23T13:40:16;96479.03;;;8.77;69.88
9139;BME280;4604;48.616;9.548;2024-03-23T13:42:43;96467.09;;;8.34;70.86
9139;BME280;4604;48.616;9.548;2024-03-23T13:45:10;96479.94;;;8.18;73.10
9139;BME280;4604;48.616;9.548;2024-03-23T13:47:37;96480.88;;;8.07;78.55
9139;BME280;4604;48.616;9.548;2024-03-23T13:50:05;96467.16;;;7.94;79.53
9139;BME280;4604;48.616;9.548;2024-03-23T13:52:30;96455.34;;;7.79;85.49
9139;BME280;4604;48.616;9.548;2024-03-23T13:54:57;96453.38;;;7.61;82.28
9139;BME280;4604;48.616;9.548;2024-03-23T13:57:22;96464.41;;;7.65;82.99
9139;BME280;4604;48.616;9.548;2024-03-23T13:59:52;96456.97;;;7.29;79.42
9139;BME280;4604;48.616;9.548;2024-03-23T14:02:18;96442.59;;;7.64;81.05
9139;BME280;4604;48.616;9.548;2024-03-23T14:04:44;96442.00;;;7.51;83.04
9139;BME280;4604;48.616;9.548;2024-03-23T14:07:10;96433.56;;;7.57;82.92
9139;BME280;4604;48.616;9.548;2024-03-23T14:09:37;96432.88;;;7.55;83.04
9139;BME280;4604;48.616;9.548;2024-03-23T14:12:02;96433.47;;;7.59;83.45
9139;BME280;4604;48.616;9.548;2024-03-23T14:14:29;96425.63;;;7.78;81.50
9139;BME280;4604;48.616;9.548;2024-03-23T14:16:56;96434.75;;;7.74;80.74